Time;durP1;ratioP1;P1;durP2;ratioP2;P2;SDS_P1;SDS_P2;PMS_P1;PMS_P2;Temp;Humidity;BMP_temperature;BMP_pressure;BME280_temperature;BME280_humidity;BME280_pressure;Samples;Min_cycle;Max_cycle;Signal;HPM_P1;HPM_P2
2021/03/08 00:00:36;;;;;;;27.45;16.77;;;;;;;-0.57;70.37;96608.19;1807826;79;21546;-81
2021/03/08 00:03:08;;;;;;;31.17;19.65;;;;;;;-0.57;70.24;96613.91;1793992;79;21176;-81
2021/03/08 00:05:36;;;;;;;27.02;15.45;;;;;;;-0.57;70.19;96624.31;1795337;79;21534;-81
2021/03/08 00:08:04;;;;;;;34.58;21.27;;;;;;;-0.61;70.22;96621.34;1773380;80;21147;-81
2021/03/08 00:10:32;;;;;;;30.08;18.67;;;;;;;-0.66;70.13;96623.27;1792457;79;21145;-81
2021/03/08 00:12:59;;;;;;;36.13;21.25;;;;;;;-0.70;70.09;96618.69;1783706;80;21138;-81
2021/03/08 00:15:26;;;;;;;37.53;21.85;;;;;;;-0.73;69.96;96614.67;1783130;79;21100;-80
2021/03/08 00:17:54;;;;;;;28.25;16.02;;;;;;;-0.79;69.65;96614.20;1790620;79;21175;-81
2021/03/08 00:20:25;;;;;;;35.50;21.97;;;;;;;-0.85;70.08;96604.61;1781131;80;21108;-81
2021/03/08 00:22:53;;;;;;;35.13;21.05;;;;;;;-0.89;69.82;96606.03;1774818;79;21552;-81
2021/03/08 00:25:25;;;;;;;33.02;19.17;;;;;;;-0.95;69.93;96592.05;1785126;79;21482;-81
2021/03/08 00:27:53;;;;;;;36.83;22.40;;;;;;;-0.98;69.83;96585.16;1787947;79;21131;-80
2021/03/08 00:30:22;;;;;;;22.02;13.60;;;;;;;-1.02;69.78;96577.45;1783376;79;21155;-81
2021/03/08 00:32:49;;;;;;;31.12;19.12;;;;;;;-1.08;70.08;96578.28;1784011;79;21225;-81
2021/03/08 00:35:18;;;;;;;19.32;12.23;;;;;;;-1.09;70.08;96573.59;1788144;79;21091;-81
2021/03/08 00:37:45;;;;;;;24.80;15.20;;;;;;;-1.06;70.46;96569.77;1792628;79;21176;-80
2021/03/08 00:40:17;;;;;;;22.58;15.53;;;;;;;-1.03;70.55;96571.45;1774583;79;22570;-81
2021/03/08 00:42:45;;;;;;;30.23;15.05;;;;;;;-1.03;70.42;96570.66;1779409;80;21582;-80
2021/03/08 00:45:15;;;;;;;28.20;14.35;;;;;;;-1.00;70.39;96571.53;1787841;79;21679;-80
2021/03/08 00:47:44;;;;;;;29.77;17.95;;;;;;;-1.00;70.34;96573.64;1791862;80;21115;-80
2021/03/08 00:50:18;;;;;;;31.45;17.62;;;;;;;-0.99;70.25;96574.43;1791461;79;21511;-81
2021/03/08 00:52:46;;;;;;;22.67;14.30;;;;;;;-1.02;70.32;96570.45;1778567;80;21310;-81
2021/03/08 00:55:15;;;;;;;22.30;13.38;;;;;;;-1.08;70.68;96562.17;1788113;80;21124;-81
2021/03/08 00:57:43;;;;;;;25.90;14.80;;;;;;;-1.09;70.81;96567.08;1791795;80;21127;-80
2021/03/08 01:00:15;;;;;;;21.27;12.53;;;;;;;-1.10;70.97;96560.79;1778936;79;21752;-81
2021/03/08 01:02:42;;;;;;;28.65;18.20;;;;;;;-1.14;71.12;96559.58;1777036;79;21263;-81
2021/03/08 01:05:09;;;;;;;31.20;17.25;;;;;;;-1.23;70.93;96556.42;1782025;80;21116;-81
2021/03/08 01:07:37;;;;;;;30.00;18.12;;;;;;;-1.31;71.19;96560.03;1787011;80;21480;-81
2021/03/08 01:10:12;;;;;;;33.05;20.00;;;;;;;-1.36;71.31;96557.26;1780086;80;21124;-81
2021/03/08 01:12:40;;;;;;;20.02;11.68;;;;;;;-1.42;71.60;96546.36;1777344;78;21126;-81
2021/03/08 01:15:10;;;;;;;33.50;18.20;;;;;;;-1.44;72.28;96558.77;1778244;80;21144;-80
2021/03/08 01:17:38;;;;;;;24.52;12.80;;;;;;;-1.46;72.38;96550.88;1784374;80;21280;-81
2021/03/08 01:20:13;;;;;;;31.68;15.68;;;;;;;-1.48;72.67;96547.18;1779391;80;21669;-81
2021/03/08 01:22:41;;;;;;;23.40;12.45;;;;;;;-1.51;72.77;96543.70;1790926;80;21139;-81
2021/03/08 01:25:15;;;;;;;22.45;13.30;;;;;;;-1.51;72.95;96554.09;1773889;80;21115;-81
2021/03/08 01:27:43;;;;;;;36.65;21.12;;;;;;;-1.53;73.12;96551.70;1766388;80;21288;-81
2021/03/08 01:30:15;;;;;;;30.27;15.60;;;;;;;-1.53;72.98;96551.70;1770112;80;21121;-81
2021/03/08 01:32:42;;;;;;;18.85;12.55;;;;;;;-1.53;73.12;96541.30;1784678;80;21146;-81
2021/03/08 01:35:11;;;;;;;25.57;11.55;;;;;;;-1.55;73.33;96537.28;1784295;80;21555;-81
2021/03/08 01:37:39;;;;;;;29.95;18.10;;;;;;;-1.52;73.41;96535.60;1774486;80;21110;-80
2021/03/08 01:40:11;;;;;;;31.02;17.30;;;;;;;-1.53;73.13;96534.80;1752489;80;21119;-80
2021/03/08 01:42:42;;;;;;;31.65;19.00;;;;;;;-1.55;72.96;96529.48;1775699;79;21471;-81
2021/03/08 01:45:13;;;;;;;33.18;20.27;;;;;;;-1.54;73.05;96541.51;1781520;80;21127;-81
2021/03/08 01:47:44;;;;;;;31.52;17.95;;;;;;;-1.53;73.07;96535.31;1785161;79;21577;-81
2021/03/08 01:50:20;;;;;;;30.37;17.00;;;;;;;-1.54;72.93;96533.71;1777053;80;21120;-80
2021/03/08 01:52:50;;;;;;;30.25;17.37;;;;;;;-1.51;72.81;96529.40;1777094;80;21280;-81
2021/03/08 01:55:20;;;;;;;29.75;16.27;;;;;;;-1.49;72.79;96527.39;1782387;79;21630;-81
2021/03/08 01:57:47;;;;;;;24.07;15.83;;;;;;;-1.49;72.63;96527.39;1780340;80;21076;-80
2021/03/08 02:00:16;;;;;;;34.15;18.20;;;;;;;-1.51;72.56;96521.60;1780143;79;21131;-80
2021/03/08 02:02:45;;;;;;;21.37;13.50;;;;;;;-1.48;72.47;96532.09;1772317;80;21091;-80
2021/03/08 02:05:18;;;;;;;30.40;20.40;;;;;;;-1.44;72.27;96526.77;1772835;80;21131;-80
2021/03/08 02:07:45;;;;;;;15.08;10.93;;;;;;;-1.34;71.96;96520.14;1767437;80;21504;-81
2021/03/08 02:10:16;;;;;;;22.82;14.65;;;;;;;-1.30;71.78;96521.83;1780813;80;21472;-81
2021/03/08 02:13:23;;;;;;;29.10;17.42;;;;;;;-1.22;71.66;96536.71;1786021;79;21148;-81
2021/03/08 02:16:07;;;;;;;29.42;17.50;;;;;;;-1.15;71.42;96533.28;1791436;79;21229;-81
2021/03/08 02:19:10;;;;;;;19.20;11.90;;;;;;;-1.12;71.32;96539.39;1799304;79;21108;-81
2021/03/08 02:22:20;;;;;;;26.68;15.95;;;;;;;-1.07;71.20;96529.95;1786179;80;21190;-81
2021/03/08 02:25:13;;;;;;;14.73;10.18;;;;;;;-1.07;70.97;96534.36;1780026;80;21115;-81
2021/03/08 02:28:12;;;;;;;21.90;12.00;;;;;;;-1.07;70.90;96531.25;1776616;80;21123;-81
2021/03/08 02:30:49;;;;;;;27.52;18.57;;;;;;;-1.05;70.77;96532.34;1783090;79;21135;-81
2021/03/08 02:33:24;;;;;;;30.27;17.98;;;;;;;-1.04;70.62;96534.73;1770021;79;21115;-80
2021/03/08 02:35:55;;;;;;;26.42;17.87;;;;;;;-1.07;70.52;96531.75;1775058;79;21111;-81
2021/03/08 02:38:30;;;;;;;22.50;12.95;;;;;;;-1.11;70.50;96526.67;1782802;79;21127;-80
2021/03/08 02:41:16;;;;;;;23.60;13.88;;;;;;;-1.13;70.80;96532.06;1778144;80;21341;-81
2021/03/08 02:43:46;;;;;;;21.17;13.00;;;;;;;-1.20;70.79;96533.40;1770467;80;21126;-81
2021/03/08 02:46:32;;;;;;;30.48;18.65;;;;;;;-1.20;70.85;96533.40;1784127;79;21095;-81
2021/03/08 02:49:04;;;;;;;28.17;16.05;;;;;;;-1.22;70.71;96529.41;1771984;80;21104;-81
2021/03/08 02:51:34;;;;;;;22.60;15.43;;;;;;;-1.21;70.72;96534.41;1781625;80;21575;-81
2021/03/08 02:54:04;;;;;;;27.73;16.40;;;;;;;-1.20;70.72;96533.91;1778601;80;21159;-81
2021/03/08 02:56:35;;;;;;;25.52;17.48;;;;;;;-1.22;70.78;96538.02;1786501;80;21127;-81
2021/03/08 02:59:06;;;;;;;20.62;13.32;;;;;;;-1.24;70.71;96532.72;1788818;79;22134;-81
2021/03/08 03:01:36;;;;;;;18.75;11.22;;;;;;;-1.23;70.92;96529.12;1778793;80;21182;-81
2021/03/08 03:04:06;;;;;;;19.77;11.95;;;;;;;-1.22;70.96;96536.71;1778006;79;21538;-81
2021/03/08 03:06:37;;;;;;;25.62;16.77;;;;;;;-1.24;71.01;96536.12;1784955;79;21115;-81
2021/03/08 03:09:08;;;;;;;21.10;13.15;;;;;;;-1.25;71.07;96530.63;1769822;79;21582;-80
2021/03/08 03:11:40;;;;;;;28.27;17.57;;;;;;;-1.25;70.94;96541.03;1771074;80;21147;-81
2021/03/08 03:14:09;;;;;;;25.97;17.20;;;;;;;-1.25;70.89;96542.33;1799740;79;21127;-80
2021/03/08 03:16:38;;;;;;;24.10;16.77;;;;;;;-1.25;70.69;96541.03;1753532;80;21164;-80
2021/03/08 03:19:07;;;;;;;27.02;17.45;;;;;;;-1.26;70.65;96547.73;1767192;79;21167;-81
2021/03/08 03:21:36;;;;;;;26.93;15.05;;;;;;;-1.28;70.67;96545.31;1782624;79;21495;-81
2021/03/08 03:24:08;;;;;;;20.10;10.88;;;;;;;-1.29;70.85;96544.22;1769444;79;21188;-81
2021/03/08 03:26:36;;;;;;;20.00;13.40;;;;;;;-1.35;71.23;96538.05;1764420;80;21439;-81
2021/03/08 03:29:06;;;;;;;22.02;13.62;;;;;;;-1.42;71.46;96541.16;1774310;80;21505;-80
2021/03/08 03:31:36;;;;;;;25.15;14.93;;;;;;;-1.44;71.63;96539.27;1792125;79;21147;-81
2021/03/08 03:34:05;;;;;;;17.35;11.22;;;;;;;-1.46;71.83;96534.77;1769555;79;21545;-80
2021/03/08 03:36:36;;;;;;;19.70;10.63;;;;;;;-1.46;72.14;96543.88;1771677;79;21174;-81
2021/03/08 03:39:06;;;;;;;;;;;;;;;-1.47;72.25;96533.18;1791736;79;21166;-81
2021/03/08 03:41:34;;;;;;;20.95;13.98;;;;;;;-1.48;72.38;96534.19;1784536;79;20253;-81
2021/03/08 03:44:03;;;;;;;23.18;14.95;;;;;;;-1.47;72.38;96528.48;1785027;79;21144;-81
2021/03/08 03:46:30;;;;;;;16.95;11.20;;;;;;;-1.48;72.32;96531.58;1784748;79;21131;-81
2021/03/08 03:48:58;;;;;;;23.25;13.25;;;;;;;-1.49;72.43;96523.49;1768997;79;21161;-81
2021/03/08 03:51:25;;;;;;;22.48;13.95;;;;;;;-1.46;72.38;96520.98;1774188;79;21526;-81
2021/03/08 03:53:52;;;;;;;19.98;11.55;;;;;;;-1.41;72.41;96530.25;1778007;80;21535;-80
2021/03/08 03:56:24;;;;;;;24.35;15.08;;;;;;;-1.37;72.29;96532.26;1770113;80;21115;-81
2021/03/08 03:58:56;;;;;;;22.13;13.28;;;;;;;-1.32;72.15;96544.14;1766374;80;21482;-81
2021/03/08 04:01:35;;;;;;;28.50;17.25;;;;;;;-1.33;72.23;96540.45;1778564;79;21135;-81
2021/03/08 04:04:36;;;;;;;15.63;10.25;;;;;;;-1.34;72.21;96540.15;1777294;80;21147;-81
2021/03/08 04:07:06;;;;;;;20.80;13.50;;;;;;;-1.35;72.34;96541.16;1789136;79;21553;-81
2021/03/08 04:09:35;;;;;;;17.75;10.48;;;;;;;-1.36;72.53;96534.36;1766374;80;21188;-81
2021/03/08 04:12:05;;;;;;;19.23;10.43;;;;;;;-1.36;72.67;96526.56;1783006;79;21115;-81
2021/03/08 04:14:35;;;;;;;14.70;10.20;;;;;;;-1.36;72.71;96533.06;1739949;81;21498;-81
2021/03/08 04:17:02;;;;;;;22.95;15.25;;;;;;;-1.36;72.78;96533.86;1769636;80;21247;-81
2021/03/08 04:19:33;;;;;;;22.20;13.15;;;;;;;-1.35;72.82;96526.85;1772549;80;21126;-80
2021/03/08 04:22:05;;;;;;;21.68;14.23;;;;;;;-1.35;72.95;96524.25;1771507;80;21474;-80
2021/03/08 04:24:34;;;;;;;24.47;14.58;;;;;;;-1.35;72.96;96517.25;1775883;79;21163;-81
2021/03/08 04:27:06;;;;;;;21.48;13.60;;;;;;;-1.36;73.11;96519.55;1749526;80;21143;-81
2021/03/08 04:29:39;;;;;;;18.70;10.60;;;;;;;-1.35;73.09;96515.95;1770510;79;21104;-81
2021/03/08 04:32:08;;;;;;;17.35;11.43;;;;;;;-1.37;73.10;96514.06;1788791;79;21131;-81
2021/03/08 04:34:37;;;;;;;17.35;12.05;;;;;;;-1.38;73.09;96509.06;1783776;79;21148;-81
2021/03/08 04:37:06;;;;;;;18.77;9.53;;;;;;;-1.36;72.90;96507.06;1773724;79;21127;-81
2021/03/08 04:39:37;;;;;;;16.55;9.80;;;;;;;-1.35;72.78;96512.55;1790179;79;21107;-81
2021/03/08 04:42:07;;;;;;;19.05;9.20;;;;;;;-1.38;72.89;96504.66;1788785;79;21099;-80
2021/03/08 04:44:36;;;;;;;25.45;15.78;;;;;;;-1.39;72.88;96495.27;1776779;79;21101;-81
2021/03/08 04:47:04;;;;;;;21.35;11.33;;;;;;;-1.46;72.86;96484.08;1778255;79;21127;-81
2021/03/08 04:49:34;;;;;;;19.52;11.30;;;;;;;-1.50;73.02;96486.80;1765648;79;21159;-81
2021/03/08 04:52:02;;;;;;;17.02;10.48;;;;;;;-1.49;73.18;96487.09;1812434;79;21127;-81
2021/03/08 04:54:31;;;;;;;21.93;13.05;;;;;;;-1.48;73.32;96486.09;1763982;80;21153;-80
2021/03/08 04:56:59;;;;;;;26.17;13.13;;;;;;;-1.43;73.34;96491.97;1767513;80;21107;-81
2021/03/08 04:59:26;;;;;;;18.57;10.50;;;;;;;-1.41;73.40;96496.45;1762195;80;21180;-80
2021/03/08 05:01:56;;;;;;;28.98;16.50;;;;;;;-1.37;73.39;96499.76;1770298;79;21143;-81
2021/03/08 05:04:24;;;;;;;;;;;;;;;-1.33;73.24;96506.64;1772887;79;21134;-81
2021/03/08 05:06:53;;;;;;;26.80;16.20;;;;;;;-1.30;73.24;96506.22;1786205;79;20107;-81
2021/03/08 05:09:23;;;;;;;39.40;22.37;;;;;;;-1.29;73.10;96503.92;1780986;80;21511;-81
2021/03/08 05:11:54;;;;;;;35.33;21.85;;;;;;;-1.26;72.87;96521.73;1781065;80;21092;-81
2021/03/08 05:14:22;;;;;;;32.45;20.10;;;;;;;-1.21;72.75;96531.00;1789843;79;21076;-81
2021/03/08 05:16:50;;;;;;;31.60;20.25;;;;;;;-1.18;72.61;96527.98;1744654;80;21164;-81
2021/03/08 05:19:20;;;;;;;30.40;19.62;;;;;;;-1.14;72.53;96532.27;1777057;79;21108;-81
2021/03/08 05:21:50;;;;;;;35.40;21.50;;;;;;;-1.11;72.50;96520.97;1777231;80;21475;-81
2021/03/08 05:24:18;;;;;;;20.37;11.90;;;;;;;-1.11;72.36;96524.87;1781525;80;21507;-81
2021/03/08 05:26:46;;;;;;;28.90;18.02;;;;;;;-1.11;72.54;96527.47;1794589;79;21172;-81
2021/03/08 05:29:14;;;;;;;31.42;18.20;;;;;;;-1.12;72.60;96529.78;1785548;79;21100;-81
2021/03/08 05:31:42;;;;;;;31.50;20.48;;;;;;;-1.11;72.51;96530.58;1775147;79;21482;-81
2021/03/08 05:34:12;;;;;;;34.10;20.37;;;;;;;-1.10;72.41;96543.88;1779648;80;21123;-79
2021/03/08 05:36:47;;;;;;;31.27;19.87;;;;;;;-1.11;72.53;96540.48;1787763;79;21154;-79
2021/03/08 05:39:18;;;;;;;22.73;13.58;;;;;;;-1.11;72.63;96535.28;1779073;79;21139;-79
2021/03/08 05:42:13;;;;;;;23.87;15.38;;;;;;;-1.10;72.73;96532.17;1788762;79;21119;-79
2021/03/08 05:45:03;;;;;;;25.02;16.50;;;;;;;-1.12;72.61;96541.48;1776039;80;21495;-81
2021/03/08 05:48:13;;;;;;;30.12;19.50;;;;;;;-1.12;72.70;96548.50;1791534;79;21266;-80
2021/03/08 05:51:15;;;;;;;32.08;22.05;;;;;;;-1.12;72.90;96549.80;1765811;79;21535;-80
2021/03/08 05:54:00;;;;;;;28.32;17.10;;;;;;;-1.12;72.74;96555.80;1769027;80;21507;-81
2021/03/08 05:56:50;;;;;;;19.42;14.23;;;;;;;-1.10;72.68;96556.89;1792245;79;21120;-80
2021/03/08 05:59:52;;;;;;;32.80;18.80;;;;;;;-1.11;72.86;96561.80;1763843;80;21170;-80
2021/03/08 06:03:10;;;;;;;27.20;16.60;;;;;;;-1.11;72.93;96557.39;1771734;79;21100;-81
2021/03/08 06:06:16;;;;;;;32.33;18.42;;;;;;;-1.10;72.85;96565.99;1775110;80;21072;-80
2021/03/08 06:09:22;;;;;;;37.13;22.40;;;;;;;-1.10;72.82;96564.69;1766919;79;21134;-80
2021/03/08 06:12:06;;;;;;;34.55;23.50;;;;;;;-1.08;72.89;96569.18;1772165;79;21102;-80
2021/03/08 06:14:43;;;;;;;32.28;19.67;;;;;;;-1.07;72.92;96574.68;1782843;79;21138;-80
2021/03/08 06:17:17;;;;;;;32.15;20.68;;;;;;;-1.09;73.20;96570.19;1776253;80;21492;-80
2021/03/08 06:19:46;;;;;;;29.35;17.95;;;;;;;-1.08;73.29;96578.28;1777647;79;21479;-80
2021/03/08 06:22:16;;;;;;;33.13;18.30;;;;;;;-1.09;73.21;96577.48;1784847;79;21139;-80
2021/03/08 06:24:46;;;;;;;29.70;18.12;;;;;;;-1.08;73.54;96582.19;1785888;79;21142;-81
2021/03/08 06:27:16;;;;;;;29.37;16.70;;;;;;;-1.08;73.60;96586.09;1782187;79;21151;-80
2021/03/08 06:29:44;;;;;;;22.20;13.38;;;;;;;-1.07;73.76;96579.88;1773833;80;21171;-80
2021/03/08 06:32:12;;;;;;;26.97;15.98;;;;;;;-1.07;73.89;96576.78;1771410;80;21210;-79
2021/03/08 06:34:41;;;;;;;21.42;14.45;;;;;;;-1.06;73.94;96580.97;1782150;79;21125;-80
2021/03/08 06:37:12;;;;;;;27.15;16.48;;;;;;;-1.05;74.08;96585.17;1782958;79;21188;-79
2021/03/08 06:39:47;;;;;;;25.50;14.78;;;;;;;-1.04;73.99;96592.47;1776851;80;21155;-81
2021/03/08 06:42:16;;;;;;;36.98;20.35;;;;;;;-1.03;74.07;96584.96;1786997;79;21147;-80
2021/03/08 06:44:50;;;;;;;36.53;22.60;;;;;;;-1.04;74.14;96594.57;1789985;79;21153;-81
2021/03/08 06:47:20;;;;;;;32.67;15.98;;;;;;;-1.01;74.16;96603.77;1800849;79;21091;-80
2021/03/08 06:49:47;;;;;;;32.63;19.67;;;;;;;-1.00;74.32;96597.05;1774252;79;21172;-80
2021/03/08 06:52:18;;;;;;;42.40;23.32;;;;;;;-1.00;74.44;96604.86;1777919;80;21087;-80
2021/03/08 06:55:01;;;;;;;37.40;20.85;;;;;;;-1.01;74.51;96598.05;1783376;79;21487;-82
2021/03/08 06:57:32;;;;;;;34.95;20.40;;;;;;;-0.98;74.45;96608.58;1784287;79;21104;-79
2021/03/08 07:00:06;;;;;;;36.53;21.75;;;;;;;-0.95;74.29;96613.37;1785652;79;21099;-80
2021/03/08 07:02:48;;;;;;;45.40;25.80;;;;;;;-0.92;74.46;96612.45;1771650;79;21181;-82
2021/03/08 07:05:27;;;;;;;42.17;25.40;;;;;;;-0.94;74.70;96612.36;1803813;79;21136;-79
2021/03/08 07:08:01;;;;;;;33.40;19.77;;;;;;;-0.98;75.31;96614.58;1771944;80;21163;-79
2021/03/08 07:10:42;;;;;;;34.90;20.45;;;;;;;-1.02;75.67;96625.08;1777524;79;21100;-80
2021/03/08 07:13:11;;;;;;;52.25;27.75;;;;;;;-1.05;75.89;96624.70;1802745;79;21509;-79
2021/03/08 07:16:00;;;;;;;41.40;25.48;;;;;;;-1.05;76.02;96629.40;1783163;80;21128;-79
2021/03/08 07:18:27;;;;;;;32.90;19.17;;;;;;;-1.05;76.14;96626.00;1785911;80;21127;-79
2021/03/08 07:21:15;;;;;;;40.40;23.80;;;;;;;-1.07;76.68;96630.61;1781109;80;21119;-79
2021/03/08 07:23:45;;;;;;;40.43;25.75;;;;;;;-1.11;76.64;96636.73;1793401;79;21189;-79
2021/03/08 07:26:22;;;;;;;32.73;17.23;;;;;;;-1.08;76.65;96640.22;1775859;79;21554;-79
2021/03/08 07:29:14;;;;;;;43.75;26.37;;;;;;;-1.07;76.94;96648.82;1769709;80;21127;-79
2021/03/08 07:31:51;;;;;;;38.53;23.15;;;;;;;-1.08;76.67;96652.42;1781498;79;21131;-79
2021/03/08 07:34:20;;;;;;;32.08;20.10;;;;;;;-1.08;76.58;96652.42;1797089;79;21257;-79
2021/03/08 07:37:02;;;;;;;43.13;26.05;;;;;;;-1.10;76.78;96655.73;1772723;79;21490;-79
2021/03/08 07:39:29;;;;;;;40.65;26.52;;;;;;;-1.10;76.39;96657.04;1784013;80;21158;-79
2021/03/08 07:42:04;;;;;;;48.10;28.80;;;;;;;-1.11;76.39;96660.14;1788776;80;21141;-79
2021/03/08 07:44:32;;;;;;;44.50;26.97;;;;;;;-1.09;76.26;96665.94;1778447;79;21149;-79
2021/03/08 07:47:16;;;;;;;44.13;30.15;;;;;;;-1.03;76.24;96665.61;1757559;80;21482;-79
2021/03/08 07:49:44;;;;;;;31.82;19.37;;;;;;;-1.00;76.23;96657.39;1801199;79;21162;-79
2021/03/08 07:52:18;;;;;;;41.77;25.72;;;;;;;-1.02;76.55;96665.41;1804818;79;21126;-79
2021/03/08 07:54:58;;;;;;;47.40;28.10;;;;;;;-1.09;76.91;96666.44;1779139;79;21116;-79
2021/03/08 07:57:28;;;;;;;39.40;24.35;;;;;;;-1.11;76.93;96667.95;1784074;80;21151;-79
2021/03/08 07:59:57;;;;;;;48.13;30.97;;;;;;;-1.12;77.07;96663.75;1785336;79;21491;-79
2021/03/08 08:02:24;;;;;;;46.08;29.77;;;;;;;-1.13;76.87;96665.22;1787650;80;21189;-79
2021/03/08 08:04:52;;;;;;;50.15;29.77;;;;;;;-1.06;76.72;96668.63;1789222;79;21136;-79
2021/03/08 08:07:22;;;;;;;51.75;32.00;;;;;;;-0.99;76.52;96672.80;1775440;80;21147;-79
2021/03/08 08:09:50;;;;;;;76.53;49.53;;;;;;;-0.95;76.44;96674.52;1773728;80;21135;-79
2021/03/08 08:12:22;;;;;;;54.20;34.25;;;;;;;-0.95;76.61;96675.81;1783540;80;21166;-79
2021/03/08 08:14:53;;;;;;;49.27;32.50;;;;;;;-0.97;76.81;96675.23;1772830;80;21120;-79
2021/03/08 08:17:22;;;;;;;54.60;34.25;;;;;;;-0.94;76.79;96676.11;1778187;80;21112;-79
2021/03/08 08:19:52;;;;;;;52.40;32.50;;;;;;;-0.89;76.87;96680.19;1778197;79;21181;-80
2021/03/08 08:22:24;;;;;;;45.65;25.30;;;;;;;-0.80;76.85;96676.38;1789641;80;21122;-80
2021/03/08 08:24:55;;;;;;;45.05;28.30;;;;;;;-0.70;76.69;96679.36;1783454;79;21471;-80
2021/03/08 08:27:26;;;;;;;46.15;28.35;;;;;;;-0.67;76.81;96676.34;1779455;78;21526;-80
2021/03/08 08:29:57;;;;;;;51.98;32.03;;;;;;;-0.71;76.95;96669.92;1765389;79;21150;-80
2021/03/08 08:32:24;;;;;;;45.80;27.07;;;;;;;-0.68;76.86;96672.64;1780574;79;21103;-80
2021/03/08 08:34:51;;;;;;;46.15;30.02;;;;;;;-0.66;76.99;96671.94;1770909;79;21188;-80
2021/03/08 08:37:24;;;;;;;50.92;31.55;;;;;;;-0.64;76.82;96674.62;1777123;79;21540;-80
2021/03/08 08:39:58;;;;;;;51.85;34.50;;;;;;;-0.60;76.76;96679.70;1780745;79;21230;-80
2021/03/08 08:42:28;;;;;;;51.95;30.62;;;;;;;-0.58;76.71;96689.11;1785961;79;21527;-80
2021/03/08 08:44:59;;;;;;;46.95;29.18;;;;;;;-0.51;76.65;96689.91;1781672;79;21142;-80
2021/03/08 08:47:33;;;;;;;54.38;31.85;;;;;;;-0.40;76.71;96689.27;1789889;79;21625;-80
2021/03/08 08:50:08;;;;;;;41.60;26.05;;;;;;;-0.31;76.59;96684.89;1786507;80;21108;-80
2021/03/08 08:52:56;;;;;;;56.42;33.60;;;;;;;-0.19;76.32;96683.75;1878646;76;23388;-80
2021/03/08 08:55:41;;;;;;;49.13;30.35;;;;;;;-0.20;76.21;96686.56;1824655;77;21087;-80
2021/03/08 08:58:37;;;;;;;47.93;29.40;;;;;;;-0.17;76.24;96683.03;1824327;77;21522;-81
2021/03/08 09:01:20;;;;;;;51.25;30.92;;;;;;;-0.14;76.14;96677.90;1777010;80;21214;-81
2021/03/08 09:04:11;;;;;;;53.45;31.37;;;;;;;-0.22;76.33;96691.19;1772579;80;21122;-81
2021/03/08 09:07:01;;;;;;;52.48;29.12;;;;;;;-0.26;76.14;96693.92;1768935;80;21108;-81
2021/03/08 09:09:37;;;;;;;48.80;29.67;;;;;;;-0.18;76.22;96697.57;1770208;80;21119;-81
2021/03/08 09:12:07;;;;;;;61.68;35.95;;;;;;;-0.22;76.06;96698.49;1769476;80;21196;-81
2021/03/08 09:14:51;;;;;;;47.83;29.42;;;;;;;-0.27;76.25;96685.30;1758906;80;21158;-81
2021/03/08 09:17:51;;;;;;;50.88;31.62;;;;;;;-0.27;76.25;96685.30;1780832;80;21247;-81
2021/03/08 09:20:28;;;;;;;57.15;34.70;;;;;;;-0.19;76.01;96707.19;1758570;80;21482;-81
2021/03/08 09:22:59;;;;;;;58.80;36.25;;;;;;;-0.22;75.89;96709.42;1764886;80;21154;-81
2021/03/08 09:25:33;;;;;;;60.88;35.25;;;;;;;-0.29;76.01;96712.03;1773418;80;21112;-81
2021/03/08 09:30:48;;;;;;;60.25;33.92;;;;;;;-0.48;76.66;96712.42;1802181;78;22871;-80
2021/03/08 09:33:18;;;;;;;;;;;;;;;-0.58;76.98;96714.64;1724175;83;21208;-79
2021/03/08 09:35:55;;;;;;;58.35;33.83;;;;;;;-0.63;77.31;96724.37;1700197;83;20134;-79
2021/03/08 09:38:27;;;;;;;59.75;35.60;;;;;;;-0.61;77.24;96717.66;1720026;82;21576;-80
2021/03/08 09:40:58;;;;;;;51.98;29.05;;;;;;;-0.50;77.28;96724.05;1686575;84;21151;-80
2021/03/08 09:43:35;;;;;;;50.20;31.73;;;;;;;-0.49;77.17;96727.75;1715030;81;21486;-80
2021/03/08 09:46:07;;;;;;;56.18;35.83;;;;;;;-0.59;77.25;96731.27;1690621;84;21176;-80
2021/03/08 09:48:41;;;;;;;61.08;37.50;;;;;;;-0.62;77.35;96730.39;1724251;82;21172;-80
2021/03/08 09:51:15;;;;;;;52.70;30.88;;;;;;;-0.58;77.32;96739.88;1681109;83;21123;-80
2021/03/08 09:53:46;;;;;;;55.40;35.50;;;;;;;-0.44;77.36;96728.42;1686937;84;21483;-80
2021/03/08 09:56:20;;;;;;;36.55;21.00;;;;;;;-0.40;77.18;96738.75;1731809;82;21148;-80
2021/03/08 09:59:01;;;;;;;41.20;25.00;;;;;;;-0.40;76.68;96733.54;1695319;84;21135;-80
2021/03/08 10:01:29;;;;;;;30.12;17.60;;;;;;;-0.45;76.60;96743.75;1698359;83;21231;-81
2021/03/08 10:03:57;;;;;;;21.85;13.78;;;;;;;-0.33;76.68;96749.42;1704397;81;21511;-81
2021/03/08 10:06:32;;;;;;;29.80;16.27;;;;;;;-0.24;76.25;96757.83;1678405;83;21176;-81
2021/03/08 10:09:22;;;;;;;24.65;15.05;;;;;;;-0.19;76.12;96759.30;1715493;83;21125;-81
2021/03/08 10:12:05;;;;;;;29.52;16.20;;;;;;;-0.14;76.05;96766.02;1712406;81;21113;-81
2021/03/08 10:14:33;;;;;;;23.67;13.83;;;;;;;-0.10;76.02;96771.09;1692531;84;21525;-80
2021/03/08 10:17:10;;;;;;;29.12;15.53;;;;;;;-0.01;76.06;96778.16;1725790;83;21603;-80
2021/03/08 10:19:39;;;;;;;22.22;13.35;;;;;;;0.14;75.94;96765.69;1700699;84;21466;-80
2021/03/08 10:22:06;;;;;;;19.55;9.80;;;;;;;0.14;75.94;96765.69;1698485;83;21156;-80
2021/03/08 10:24:39;;;;;;;15.40;9.55;;;;;;;0.33;75.57;96784.03;1687683;84;21131;-80
2021/03/08 10:27:10;;;;;;;18.37;9.70;;;;;;;0.15;74.90;96783.44;1716061;83;21502;-80
2021/03/08 10:29:40;;;;;;;24.52;13.35;;;;;;;-0.06;75.05;96787.11;1701104;82;21204;-81
2021/03/08 10:32:11;;;;;;;23.12;11.88;;;;;;;-0.05;75.40;96794.72;1668505;84;21180;-80
2021/03/08 10:34:41;;;;;;;17.90;9.03;;;;;;;0.04;75.41;96789.29;1668288;86;21157;-80
2021/03/08 10:37:11;;;;;;;15.03;9.53;;;;;;;0.04;75.04;96795.80;1687866;84;21158;-80
2021/03/08 10:39:40;;;;;;;17.15;9.85;;;;;;;-0.04;75.06;96781.19;1699713;84;21128;-80
2021/03/08 10:42:09;;;;;;;20.35;10.35;;;;;;;-0.04;75.06;96781.19;1664061;84;21219;-80
2021/03/08 10:44:37;;;;;;;17.45;9.98;;;;;;;0.17;75.08;96800.96;1691707;84;21131;-80
2021/03/08 10:47:16;;;;;;;17.98;9.95;;;;;;;0.34;74.92;96795.56;1698305;84;21172;-81
2021/03/08 10:49:52;;;;;;;14.68;8.75;;;;;;;0.50;74.34;96802.89;1696212;84;21520;-81
2021/03/08 10:52:21;;;;;;;16.25;9.95;;;;;;;0.50;74.34;96802.89;1684879;84;21170;-81
2021/03/08 10:54:49;;;;;;;14.75;8.63;;;;;;;0.48;74.43;96796.29;1700131;84;21137;-81
2021/03/08 10:57:17;;;;;;;13.53;8.73;;;;;;;0.42;74.10;96797.91;1701691;84;21123;-81
2021/03/08 10:59:54;;;;;;;14.15;9.23;;;;;;;0.42;74.10;96797.91;1695325;84;21138;-81
2021/03/08 11:02:23;;;;;;;12.95;7.97;;;;;;;0.54;74.00;96800.66;1694686;84;21138;-81
2021/03/08 11:04:55;;;;;;;14.87;8.88;;;;;;;0.37;73.63;96782.09;1690751;83;21146;-81
2021/03/08 11:07:33;;;;;;;16.87;10.45;;;;;;;0.39;73.60;96785.29;1676854;84;21650;-81
2021/03/08 11:10:00;;;;;;;15.65;9.55;;;;;;;0.39;73.60;96785.29;1681731;84;21135;-81
2021/03/08 11:12:28;;;;;;;18.05;9.63;;;;;;;0.61;73.67;96798.82;1696516;84;21205;-81
2021/03/08 11:15:00;;;;;;;13.72;8.25;;;;;;;0.72;73.60;96782.50;1699460;84;21157;-81
2021/03/08 11:17:43;;;;;;;16.67;9.70;;;;;;;0.88;73.19;96798.14;1698872;84;21223;-81
2021/03/08 11:20:19;;;;;;;14.73;9.13;;;;;;;1.03;73.28;96798.63;1699540;84;21129;-81
2021/03/08 11:23:05;;;;;;;12.70;8.03;;;;;;;1.03;73.28;96798.63;1696424;84;21163;-81
2021/03/08 11:25:45;;;;;;;13.55;7.95;;;;;;;0.96;72.85;96795.76;1660574;84;21132;-81
2021/03/08 11:28:15;;;;;;;;;;;;;;;0.65;72.71;96809.63;1690230;84;21149;-81
2021/03/08 11:30:51;;;;;;;13.10;7.78;;;;;;;0.47;72.97;96811.14;1704249;83;20177;-81
2021/03/08 11:33:21;;;;;;;16.77;9.50;;;;;;;0.41;73.16;96803.33;1722575;83;21072;-81
2021/03/08 11:35:53;;;;;;;14.73;8.53;;;;;;;0.34;73.31;96809.90;1717581;82;21102;-81
2021/03/08 11:38:26;;;;;;;11.78;7.80;;;;;;;0.25;73.23;96815.05;1713586;83;21475;-81
2021/03/08 11:40:56;;;;;;;12.00;6.78;;;;;;;0.12;73.25;96828.14;1715045;83;21139;-81
2021/03/08 11:43:25;;;;;;;12.20;6.55;;;;;;;-0.02;73.37;96826.08;1698221;84;21169;-79
2021/03/08 11:45:53;;;;;;;10.25;5.78;;;;;;;-0.09;73.60;96823.51;1715967;83;21175;-79
2021/03/08 11:48:24;;;;;;;12.37;7.70;;;;;;;-0.25;73.81;96816.64;1716141;83;21066;-79
2021/03/08 11:50:54;;;;;;;11.30;6.70;;;;;;;-0.10;73.88;96830.23;1690858;84;21125;-79